Time;durP1;ratioP1;P1;durP2;ratioP2;P2;SDS_P1;SDS_P2;PMS_P1;PMS_P2;Temp;Humidity;BMP_temperature;BMP_pressure;BME280_temperature;BME280_humidity;BME280_pressure;Samples;Min_cycle;Max_cycle;Signal;HPM_P1;HPM_P2
2022/03/28 00:00:42;;;;;;;18.37;11.83;;;7.70;99.90;;;;;;5052797;28;20205;-52
2022/03/28 00:03:11;;;;;;;17.03;12.57;;;7.70;99.90;;;;;;5054485;28;20296;-51
2022/03/28 00:05:39;;;;;;;15.70;12.00;;;7.70;99.90;;;;;;5054383;28;20206;-51
2022/03/28 00:08:07;;;;;;;14.63;11.30;;;7.60;99.90;;;;;;5054754;28;20232;-52
2022/03/28 00:10:36;;;;;;;13.43;10.97;;;7.60;99.90;;;;;;5054958;28;20206;-51
2022/03/28 00:13:04;;;;;;;14.73;12.00;;;7.60;99.90;;;;;;5054367;28;20327;-51
2022/03/28 00:15:32;;;;;;;16.23;12.27;;;7.60;99.90;;;;;;5054583;28;20222;-52
2022/03/28 00:18:02;;;;;;;17.63;12.00;;;7.60;99.90;;;;;;5054163;28;20271;-51
2022/03/28 00:20:30;;;;;;;15.47;11.20;;;7.60;99.90;;;;;;5054373;28;20236;-52
2022/03/28 00:22:58;;;;;;;14.70;11.53;;;7.50;99.90;;;;;;5053874;28;20209;-52
2022/03/28 00:25:26;;;;;;;15.37;11.80;;;7.50;99.90;;;;;;5054728;28;20209;-51
2022/03/28 00:27:54;;;;;;;15.60;11.87;;;7.50;99.90;;;;;;5054371;28;20279;-51
2022/03/28 00:30:22;;;;;;;15.20;11.57;;;7.40;99.90;;;;;;5052720;28;20262;-51
2022/03/28 00:32:50;;;;;;;17.60;12.03;;;7.40;99.90;;;;;;5054081;28;20207;-52
2022/03/28 00:35:21;;;;;;;15.73;11.57;;;7.40;99.90;;;;;;5048695;28;20206;-51
2022/03/28 00:37:49;;;;;;;16.37;11.73;;;7.40;99.90;;;;;;5054409;28;20202;-52
2022/03/28 00:40:17;;;;;;;15.70;12.10;;;7.40;99.90;;;;;;5054236;28;20210;-52
2022/03/28 00:42:48;;;;;;;15.03;11.33;;;7.40;99.90;;;;;;5053442;28;20584;-51
2022/03/28 00:45:18;;;;;;;16.73;11.77;;;7.40;99.90;;;;;;5054227;28;20210;-52
2022/03/28 00:47:46;;;;;;;18.00;12.30;;;7.40;99.90;;;;;;5054142;28;20252;-52
2022/03/28 00:50:20;;;;;;;18.27;12.60;;;7.40;99.90;;;;;;5054170;28;20209;-51
2022/03/28 00:52:49;;;;;;;14.43;12.00;;;7.40;99.90;;;;;;5053373;28;20217;-51
2022/03/28 00:55:17;;;;;;;15.00;12.07;;;7.30;99.90;;;;;;5054307;28;20213;-51
2022/03/28 00:57:46;;;;;;;15.20;11.40;;;7.30;99.90;;;;;;5053767;28;20222;-51
2022/03/28 01:00:15;;;;;;;16.33;11.60;;;7.30;99.90;;;;;;5053862;28;20209;-51
2022/03/28 01:02:44;;;;;;;14.37;11.47;;;7.30;99.90;;;;;;5053525;28;20213;-51
2022/03/28 01:05:13;;;;;;;16.57;11.87;;;7.30;99.90;;;;;;5053597;28;20263;-52
2022/03/28 01:07:43;;;;;;;15.70;11.47;;;7.20;99.90;;;;;;5053822;28;20201;-52
2022/03/28 01:10:13;;;;;;;14.33;11.40;;;7.30;99.90;;;;;;5053017;28;20214;-52
2022/03/28 01:12:43;;;;;;;16.43;11.57;;;7.20;99.90;;;;;;5052185;28;20629;-51
2022/03/28 01:15:12;;;;;;;15.13;11.77;;;7.20;99.90;;;;;;5043278;28;20741;-52
2022/03/28 01:20:26;;;;;;;12.93;10.13;;;7.10;99.90;;;;;;5053063;28;20772;-52
2022/03/28 01:22:56;;;;;;;15.93;11.00;;;7.00;99.90;;;;;;5052405;28;20745;-52
2022/03/28 01:25:26;;;;;;;15.43;11.77;;;7.10;99.90;;;;;;5053401;28;20934;-51
2022/03/28 01:27:55;;;;;;;16.03;11.37;;;7.00;99.90;;;;;;5053168;28;20283;-52
2022/03/28 01:30:24;;;;;;;14.03;11.40;;;7.10;99.90;;;;;;5051785;28;20205;-52
2022/03/28 01:32:53;;;;;;;15.90;11.73;;;7.10;99.90;;;;;;5052661;28;20260;-52
2022/03/28 01:35:29;;;;;;;17.30;11.63;;;7.10;99.90;;;;;;5052430;28;20209;-51
2022/03/28 01:38:00;;;;;;;17.00;11.73;;;7.10;99.90;;;;;;5052927;28;20233;-51
2022/03/28 01:40:29;;;;;;;16.20;11.57;;;7.10;99.90;;;;;;5052850;28;20749;-52
2022/03/28 01:42:57;;;;;;;14.63;11.10;;;7.10;99.90;;;;;;5051975;28;20244;-52
2022/03/28 01:45:25;;;;;;;15.90;12.03;;;7.10;99.90;;;;;;5052838;28;20209;-52
2022/03/28 01:47:54;;;;;;;12.67;10.70;;;7.00;99.90;;;;;;5052567;28;20225;-52
2022/03/28 01:50:23;;;;;;;15.97;11.80;;;7.10;99.90;;;;;;5052300;28;20208;-52
2022/03/28 01:52:52;;;;;;;15.00;12.03;;;7.10;99.90;;;;;;5051784;28;20898;-52
2022/03/28 01:55:23;;;;;;;15.47;11.67;;;7.10;99.90;;;;;;5052744;28;20259;-52
2022/03/28 01:57:53;;;;;;;15.23;11.73;;;7.00;99.90;;;;;;5052192;28;20749;-52
2022/03/28 02:00:23;;;;;;;15.17;11.63;;;7.00;99.90;;;;;;5052687;28;20254;-52
2022/03/28 02:02:52;;;;;;;15.53;11.93;;;7.00;99.90;;;;;;5051844;28;20571;-52
2022/03/28 02:05:20;;;;;;;16.27;12.20;;;7.00;99.90;;;;;;5052292;28;20211;-52
2022/03/28 02:07:49;;;;;;;17.87;12.70;;;7.00;99.90;;;;;;5051983;28;20202;-52
2022/03/28 02:10:19;;;;;;;19.00;12.77;;;6.90;99.90;;;;;;5032261;28;20213;-52
2022/03/28 02:12:49;;;;;;;18.60;12.63;;;6.90;99.90;;;;;;5032224;28;20256;-53
2022/03/28 02:15:18;;;;;;;17.53;12.77;;;6.90;99.90;;;;;;5043127;28;20255;-52
2022/03/28 02:17:46;;;;;;;15.57;11.87;;;6.90;99.90;;;;;;5052374;28;20225;-52
2022/03/28 02:20:15;;;;;;;19.53;12.97;;;6.90;99.90;;;;;;5052194;28;20201;-52
2022/03/28 02:22:46;;;;;;;16.00;12.27;;;6.80;99.90;;;;;;5050967;28;20215;-52
2022/03/28 02:25:16;;;;;;;20.80;12.90;;;6.80;99.90;;;;;;5052161;28;20217;-52
2022/03/28 02:27:44;;;;;;;16.10;12.90;;;6.80;99.90;;;;;;5051905;28;20667;-51
2022/03/28 02:30:15;;;;;;;15.70;11.63;;;6.80;99.90;;;;;;5050711;28;20210;-51
2022/03/28 02:32:43;;;;;;;17.73;12.20;;;6.80;99.90;;;;;;5051390;28;20652;-52
2022/03/28 02:35:11;;;;;;;17.87;12.77;;;6.80;99.90;;;;;;5043091;28;20258;-52
2022/03/28 02:37:40;;;;;;;18.27;13.03;;;6.80;99.90;;;;;;5031429;28;20229;-52
2022/03/28 02:40:09;;;;;;;18.53;12.80;;;6.80;99.90;;;;;;5048710;28;20219;-52
2022/03/28 02:42:37;;;;;;;16.63;12.60;;;6.80;99.90;;;;;;5050433;28;20665;-52
2022/03/28 02:45:06;;;;;;;18.00;12.33;;;6.80;99.90;;;;;;5051100;28;20210;-52
2022/03/28 02:47:36;;;;;;;16.10;12.20;;;6.80;99.90;;;;;;5051694;28;20616;-52
2022/03/28 02:50:06;;;;;;;16.73;12.40;;;6.70;99.90;;;;;;5050870;28;20279;-51
2022/03/28 02:52:34;;;;;;;19.00;12.67;;;6.70;99.90;;;;;;5051682;28;20216;-51
2022/03/28 02:55:02;;;;;;;17.87;12.57;;;6.70;99.90;;;;;;5051813;28;20489;-51
2022/03/28 02:57:30;;;;;;;19.00;12.60;;;6.70;99.90;;;;;;5051318;28;20226;-52
2022/03/28 02:59:58;;;;;;;17.50;13.03;;;6.70;99.90;;;;;;5052028;28;20229;-52
2022/03/28 03:02:27;;;;;;;17.97;12.60;;;6.70;99.90;;;;;;5051383;28;20206;-51
2022/03/28 03:04:56;;;;;;;16.17;12.10;;;6.70;99.90;;;;;;5051658;28;20210;-51
2022/03/28 03:07:24;;;;;;;15.30;11.93;;;6.70;99.90;;;;;;5051837;28;20201;-52
2022/03/28 03:09:52;;;;;;;17.07;12.37;;;6.70;99.90;;;;;;5051225;28;20286;-51
2022/03/28 03:12:20;;;;;;;15.47;12.07;;;6.70;99.90;;;;;;5051165;28;20743;-52
2022/03/28 03:14:48;;;;;;;18.97;13.67;;;6.70;99.90;;;;;;5051377;28;20205;-51
2022/03/28 03:17:16;;;;;;;15.43;12.10;;;6.60;99.90;;;;;;5051786;28;20254;-52
2022/03/28 03:19:45;;;;;;;20.07;13.27;;;6.60;99.90;;;;;;5051251;28;20274;-52
2022/03/28 03:22:15;;;;;;;16.23;11.97;;;6.60;99.90;;;;;;5051192;28;20238;-52
2022/03/28 03:24:43;;;;;;;18.47;12.07;;;6.60;99.90;;;;;;5050920;28;20209;-51
2022/03/28 03:27:12;;;;;;;17.80;12.93;;;6.50;99.90;;;;;;5051544;28;20212;-52
2022/03/28 03:29:41;;;;;;;16.30;12.47;;;6.50;99.90;;;;;;5049882;28;20225;-52
2022/03/28 03:32:10;;;;;;;18.53;13.27;;;6.40;99.90;;;;;;5050521;28;20213;-51
2022/03/28 03:34:38;;;;;;;18.30;13.63;;;6.50;99.90;;;;;;5050458;28;20720;-52
2022/03/28 03:37:07;;;;;;;17.77;13.10;;;6.40;99.90;;;;;;5051717;28;20253;-51
2022/03/28 03:39:37;;;;;;;17.33;12.63;;;6.50;99.90;;;;;;5050745;28;20278;-51
2022/03/28 03:42:06;;;;;;;16.13;11.97;;;6.50;99.90;;;;;;5050772;28;20918;-51
2022/03/28 03:44:34;;;;;;;16.53;13.03;;;6.50;99.90;;;;;;5050873;28;20216;-51
2022/03/28 03:47:02;;;;;;;19.03;13.77;;;6.40;99.90;;;;;;5031990;28;20206;-52
2022/03/28 03:49:30;;;;;;;17.00;12.93;;;6.40;99.90;;;;;;5040309;28;20729;-52
2022/03/28 03:51:58;;;;;;;20.77;13.73;;;6.40;99.90;;;;;;5049094;28;20246;-52
2022/03/28 03:54:28;;;;;;;16.80;12.67;;;6.40;99.90;;;;;;5050268;28;20259;-52
2022/03/28 03:56:57;;;;;;;16.97;12.67;;;6.40;99.90;;;;;;5049781;28;20202;-52
2022/03/28 03:59:25;;;;;;;17.53;12.83;;;6.40;99.90;;;;;;5049960;28;20259;-51
2022/03/28 04:01:53;;;;;;;15.43;12.00;;;6.40;99.90;;;;;;5049660;28;20216;-52
2022/03/28 04:04:21;;;;;;;16.70;12.47;;;6.40;99.90;;;;;;5050135;28;20205;-51
2022/03/28 04:06:50;;;;;;;21.67;14.50;;;6.40;99.90;;;;;;5050170;28;20197;-51
2022/03/28 04:09:18;;;;;;;19.63;13.17;;;6.30;99.90;;;;;;5049825;28;20216;-52
2022/03/28 04:11:47;;;;;;;13.17;10.80;;;6.30;99.90;;;;;;5049674;28;20202;-51
2022/03/28 04:14:16;;;;;;;14.10;11.17;;;6.30;99.90;;;;;;5049500;28;20260;-51
2022/03/28 04:16:44;;;;;;;14.97;11.57;;;6.20;99.90;;;;;;5050108;28;20719;-52
2022/03/28 04:19:14;;;;;;;18.30;12.90;;;6.20;99.90;;;;;;5050478;28;20454;-52
2022/03/28 04:21:43;;;;;;;16.83;12.77;;;6.10;99.90;;;;;;5050748;28;20214;-52
2022/03/28 04:24:11;;;;;;;17.40;12.33;;;6.10;99.90;;;;;;5050276;28;20206;-51
2022/03/28 04:26:39;;;;;;;17.00;12.47;;;6.10;99.90;;;;;;5049834;28;20240;-52
2022/03/28 04:29:07;;;;;;;21.23;14.40;;;6.10;99.90;;;;;;5048496;28;20224;-52
2022/03/28 04:31:40;;;;;;;18.80;13.57;;;6.10;99.90;;;;;;5049427;28;20214;-52
2022/03/28 04:34:09;;;;;;;18.83;13.37;;;6.10;99.90;;;;;;5049974;28;20248;-52
2022/03/28 04:36:38;;;;;;;19.17;13.37;;;6.10;99.90;;;;;;5050027;28;20220;-50
2022/03/28 04:39:07;;;;;;;19.43;14.00;;;6.10;99.90;;;;;;5050797;28;20347;-51
2022/03/28 04:41:35;;;;;;;19.70;14.67;;;6.10;99.90;;;;;;5050011;28;20216;-52
2022/03/28 04:44:03;;;;;;;18.87;14.63;;;6.10;99.90;;;;;;5048705;28;20208;-52
2022/03/28 04:46:32;;;;;;;18.57;13.97;;;6.10;99.90;;;;;;5047423;28;20243;-52
2022/03/28 04:49:02;;;;;;;19.50;14.37;;;6.10;99.90;;;;;;5046679;28;20297;-52
2022/03/28 04:51:31;;;;;;;17.83;13.60;;;6.10;99.90;;;;;;5045424;28;20738;-51
2022/03/28 04:53:59;;;;;;;17.07;12.93;;;6.10;99.90;;;;;;5051301;28;20279;-52
2022/03/28 04:56:27;;;;;;;21.90;14.33;;;6.10;99.90;;;;;;5050559;28;20215;-51
2022/03/28 04:58:55;;;;;;;19.47;14.20;;;6.10;99.90;;;;;;5051472;28;20235;-52
2022/03/28 05:01:24;;;;;;;15.70;12.73;;;6.10;99.90;;;;;;5033156;28;20264;-52
2022/03/28 05:03:52;;;;;;;18.93;15.00;;;6.10;99.90;;;;;;5050942;28;20260;-52
2022/03/28 05:06:22;;;;;;;23.87;15.60;;;6.10;99.90;;;;;;5052219;28;20255;-52
2022/03/28 05:08:50;;;;;;;20.33;15.00;;;6.10;99.90;;;;;;5052930;28;20266;-52
2022/03/28 05:11:22;;;;;;;19.73;14.23;;;6.10;99.90;;;;;;5053182;28;20260;-52
2022/03/28 05:13:50;;;;;;;21.07;15.27;;;6.10;99.90;;;;;;5052485;28;20674;-52
2022/03/28 05:16:19;;;;;;;19.03;14.10;;;6.10;99.90;;;;;;5052792;28;20262;-52
2022/03/28 05:18:47;;;;;;;20.57;15.07;;;6.10;99.90;;;;;;5052531;28;20240;-52
2022/03/28 05:21:15;;;;;;;18.27;14.57;;;6.10;99.90;;;;;;5052588;28;20263;-52
2022/03/28 05:23:46;;;;;;;20.57;14.23;;;6.10;99.90;;;;;;5052715;28;20201;-52
2022/03/28 05:26:14;;;;;;;20.87;13.60;;;6.10;99.90;;;;;;5053174;28;20210;-51
2022/03/28 05:28:42;;;;;;;23.30;15.57;;;6.10;99.90;;;;;;5051893;28;20228;-51
2022/03/28 05:31:10;;;;;;;23.83;15.63;;;6.10;99.90;;;;;;5052695;28;20657;-52
2022/03/28 05:33:38;;;;;;;19.23;14.57;;;6.10;99.90;;;;;;5052032;28;20712;-52
2022/03/28 05:36:07;;;;;;;22.93;15.80;;;6.20;99.90;;;;;;5052883;28;20921;-52
2022/03/28 05:38:35;;;;;;;19.13;14.20;;;6.10;99.90;;;;;;5052584;28;20281;-52
2022/03/28 05:41:07;;;;;;;19.80;14.43;;;6.10;99.90;;;;;;5051606;28;20693;-52
2022/03/28 05:43:36;;;;;;;18.90;13.60;;;6.10;99.90;;;;;;5052538;28;20253;-52
2022/03/28 05:46:05;;;;;;;20.60;15.07;;;6.20;99.90;;;;;;5052043;28;20341;-52
2022/03/28 05:48:33;;;;;;;22.60;14.80;;;6.20;99.90;;;;;;5043379;28;20288;-52
2022/03/28 05:51:02;;;;;;;20.70;15.43;;;6.30;99.90;;;;;;5049192;28;20208;-52
2022/03/28 05:53:30;;;;;;;23.53;16.93;;;6.60;99.90;;;;;;5049480;28;20204;-51
2022/03/28 05:55:58;;;;;;;19.30;13.87;;;6.80;99.90;;;;;;5050299;28;20240;-52
2022/03/28 05:58:29;;;;;;;22.20;14.83;;;6.80;99.90;;;;;;5051452;28;20263;-51
2022/03/28 06:00:58;;;;;;;19.07;13.60;;;6.70;99.90;;;;;;5052405;28;20198;-51
2022/03/28 06:03:27;;;;;;;17.93;14.23;;;6.70;99.90;;;;;;5051276;28;20213;-51
2022/03/28 06:06:04;;;;;;;14.63;12.33;;;6.80;99.90;;;;;;5052109;28;20200;-51
2022/03/28 06:08:33;;;;;;;17.40;12.87;;;7.10;99.90;;;;;;5051429;28;20226;-52
2022/03/28 06:11:03;;;;;;;20.17;14.30;;;7.20;99.90;;;;;;5051935;28;20263;-51
2022/03/28 06:13:33;;;;;;;17.63;13.07;;;7.40;99.90;;;;;;5051822;28;20243;-51
2022/03/28 06:16:02;;;;;;;18.37;13.87;;;7.50;99.90;;;;;;5052108;28;20255;-51
2022/03/28 06:18:31;;;;;;;19.20;13.40;;;7.50;99.90;;;;;;5051565;28;20282;-52
2022/03/28 06:20:59;;;;;;;26.07;14.17;;;7.80;99.90;;;;;;5051810;28;20213;-52
2022/03/28 06:23:27;;;;;;;17.97;14.20;;;8.00;99.90;;;;;;5043528;28;20213;-52
2022/03/28 06:25:55;;;;;;;19.37;14.63;;;8.20;99.90;;;;;;5031985;28;20256;-52
2022/03/28 06:28:23;;;;;;;18.30;14.10;;;8.30;99.90;;;;;;5031811;28;20329;-52
2022/03/28 06:30:53;;;;;;;15.53;13.30;;;8.50;99.90;;;;;;5031770;28;20214;-52
2022/03/28 06:33:21;;;;;;;17.30;13.97;;;8.80;99.90;;;;;;5030826;28;20242;-51
2022/03/28 06:35:49;;;;;;;20.10;15.10;;;8.90;99.90;;;;;;5031126;28;20202;-52
2022/03/28 06:38:17;;;;;;;18.50;13.93;;;9.10;99.90;;;;;;5031587;28;20284;-52
2022/03/28 06:40:46;;;;;;;17.17;12.93;;;9.40;99.90;;;;;;5031360;28;20259;-52
2022/03/28 06:43:14;;;;;;;13.93;11.70;;;9.60;99.90;;;;;;5042948;28;20259;-52
2022/03/28 06:45:42;;;;;;;14.57;12.87;;;9.80;99.90;;;;;;5051535;28;20278;-51
2022/03/28 06:48:11;;;;;;;17.17;14.23;;;10.00;99.90;;;;;;5049974;28;20248;-51
2022/03/28 06:50:59;;;;;;;14.20;12.63;;;10.20;99.90;;;;;;5047542;28;20296;-51
2022/03/28 06:53:28;;;;;;;14.27;12.40;;;10.40;99.90;;;;;;5030183;28;20206;-50
2022/03/28 06:55:56;;;;;;;14.40;12.90;;;10.70;99.90;;;;;;5031065;28;20210;-52
2022/03/28 06:58:24;;;;;;;15.67;12.77;;;11.00;99.90;;;;;;5044907;28;20644;-51
2022/03/28 07:00:53;;;;;;;14.95;13.30;;;11.30;99.90;;;;;;5044238;28;20506;-52
2022/03/28 07:03:23;;;;;;;16.13;13.03;;;11.70;99.90;;;;;;5047382;28;20205;-51
2022/03/28 07:05:51;;;;;;;16.47;12.70;;;11.80;99.90;;;;;;5050637;28;20267;-52
2022/03/28 07:08:19;;;;;;;14.70;13.10;;;11.90;99.90;;;;;;5050927;28;20225;-51
2022/03/28 07:10:47;;;;;;;17.40;14.20;;;12.20;99.90;;;;;;5049569;28;20209;-51
2022/03/28 07:13:16;;;;;;;16.93;13.80;;;12.40;99.90;;;;;;5049941;28;20214;-51
2022/03/28 07:15:44;;;;;;;17.87;14.83;;;12.40;99.90;;;;;;5050825;28;20683;-52
2022/03/28 07:18:18;;;;;;;18.23;14.27;;;12.50;99.90;;;;;;5051013;28;20291;-52
2022/03/28 07:20:47;;;;;;;16.60;14.27;;;12.60;99.90;;;;;;5041058;28;20284;-51
2022/03/28 07:23:15;;;;;;;16.60;13.90;;;12.80;99.90;;;;;;5030721;28;20214;-52
2022/03/28 07:25:44;;;;;;;14.75;13.20;;;12.90;99.90;;;;;;5030779;28;20218;-51
2022/03/28 07:28:14;;;;;;;14.82;13.23;;;13.20;99.90;;;;;;5030952;28;20288;-51
2022/03/28 07:30:42;;;;;;;13.98;12.45;;;13.30;99.90;;;;;;5031129;28;20214;-52
2022/03/28 07:33:11;;;;;;;13.85;12.45;;;13.50;99.90;;;;;;5030433;28;20222;-52
2022/03/28 07:35:40;;;;;;;14.80;12.02;;;13.70;99.90;;;;;;5030821;28;20631;-52
2022/03/28 07:38:10;;;;;;;14.13;12.05;;;13.80;99.90;;;;;;5030132;28;20292;-52
2022/03/28 07:40:45;;;;;;;15.25;13.57;;;13.70;99.90;;;;;;5031020;28;20214;-52
2022/03/28 07:43:13;;;;;;;14.77;13.27;;;13.90;99.90;;;;;;5030408;28;20210;-52
2022/03/28 07:45:41;;;;;;;15.00;12.40;;;13.90;99.90;;;;;;5038249;28;20202;-52
2022/03/28 07:48:09;;;;;;;15.27;13.68;;;14.00;99.90;;;;;;5050549;28;20230;-52
2022/03/28 07:50:37;;;;;;;15.02;12.43;;;14.20;99.90;;;;;;5049669;28;20210;-52
2022/03/28 07:53:06;;;;;;;13.68;12.27;;;14.30;99.90;;;;;;5050345;28;20205;-52
2022/03/28 07:55:35;;;;;;;14.05;12.55;;;14.40;99.90;;;;;;5049502;28;20633;-51
2022/03/28 07:58:04;;;;;;;16.35;13.20;;;14.50;99.90;;;;;;5049308;28;20618;-52
2022/03/28 08:00:32;;;;;;;14.15;12.75;;;14.60;99.90;;;;;;5050304;28;20248;-52
2022/03/28 08:03:01;;;;;;;16.02;13.82;;;14.50;99.90;;;;;;5049725;28;20220;-52
2022/03/28 08:05:29;;;;;;;15.70;14.00;;;14.30;99.90;;;;;;5049904;28;20256;-51
2022/03/28 08:07:58;;;;;;;15.07;13.48;;;14.20;99.90;;;;;;5035833;28;20230;-52
2022/03/28 08:10:26;;;;;;;14.07;11.95;;;14.20;99.90;;;;;;5047976;28;20633;-52
2022/03/28 08:12:57;;;;;;;17.02;14.73;;;14.10;99.90;;;;;;5048018;28;20263;-51
2022/03/28 08:15:26;;;;;;;16.27;13.82;;;14.20;99.90;;;;;;5047568;28;20201;-52
2022/03/28 08:17:58;;;;;;;16.05;13.48;;;14.10;99.90;;;;;;5047047;28;20265;-51
2022/03/28 08:20:26;;;;;;;17.70;14.65;;;14.20;99.90;;;;;;5047931;28;20217;-52
2022/03/28 08:22:54;;;;;;;16.67;14.33;;;14.10;99.90;;;;;;5050221;28;20255;-52
2022/03/28 08:25:24;;;;;;;16.00;13.83;;;14.20;99.90;;;;;;5052296;28;20210;-52
2022/03/28 08:27:52;;;;;;;16.15;13.70;;;14.20;99.90;;;;;;5051048;28;20756;-52
2022/03/28 08:30:22;;;;;;;18.40;15.57;;;14.30;99.90;;;;;;5051670;28;20580;-51
2022/03/28 08:32:51;;;;;;;17.50;15.20;;;14.30;99.90;;;;;;5044486;28;20908;-52
2022/03/28 08:35:19;;;;;;;16.50;14.03;;;14.30;99.90;;;;;;5033286;28;20210;-52
2022/03/28 08:37:47;;;;;;;16.00;14.30;;;14.40;99.90;;;;;;5033393;28;20218;-51
2022/03/28 08:40:16;;;;;;;18.67;14.83;;;14.40;99.90;;;;;;5051580;28;20256;-51
2022/03/28 08:42:46;;;;;;;16.95;14.82;;;14.50;99.90;;;;;;5051431;28;20210;-52
2022/03/28 08:45:14;;;;;;;17.40;14.93;;;14.50;99.90;;;;;;5052049;28;20206;-51
2022/03/28 08:47:46;;;;;;;18.13;15.10;;;14.60;99.90;;;;;;5051157;28;20210;-51
2022/03/28 08:50:36;;;;;;;17.67;15.18;;;14.60;99.90;;;;;;5051718;28;20232;-49
2022/03/28 08:53:05;;;;;;;18.27;15.07;;;14.60;99.90;;;;;;5050567;28;20247;-49
2022/03/28 08:55:33;;;;;;;19.70;16.00;;;14.70;99.90;;;;;;5052144;28;20296;-49
2022/03/28 08:58:02;;;;;;;20.30;15.73;;;14.80;99.90;;;;;;5050971;28;20233;-50
2022/03/28 09:00:31;;;;;;;20.03;15.33;;;14.70;99.90;;;;;;5051128;28;20210;-49
2022/03/28 09:03:01;;;;;;;22.53;16.53;;;14.80;99.90;;;;;;5051524;28;20216;-49
2022/03/28 09:05:32;;;;;;;19.23;15.90;;;14.80;99.90;;;;;;5051273;28;20194;-50
2022/03/28 09:08:00;;;;;;;22.02;16.13;;;14.80;99.90;;;;;;5050780;28;20229;-50
2022/03/28 09:10:32;;;;;;;23.60;16.07;;;14.80;99.90;;;;;;5051452;28;20198;-50
2022/03/28 09:13:03;;;;;;;18.30;14.85;;;14.90;99.90;;;;;;5050678;28;20202;-50
2022/03/28 09:15:49;;;;;;;18.80;14.47;;;14.90;99.90;;;;;;5050575;28;20186;-50
2022/03/28 09:18:27;;;;;;;18.48;14.88;;;14.80;99.90;;;;;;5049368;28;20225;-50
2022/03/28 09:20:56;;;;;;;19.48;14.98;;;14.90;99.90;;;;;;5036812;28;20234;-51
2022/03/28 09:23:51;;;;;;;18.37;14.50;;;15.00;99.90;;;;;;5030444;28;20625;-52
2022/03/28 09:26:20;;;;;;;17.73;14.55;;;15.10;99.90;;;;;;5031090;28;20253;-51
2022/03/28 09:28:53;;;;;;;17.92;14.25;;;15.10;99.90;;;;;;5030905;28;20318;-51
2022/03/28 09:31:27;;;;;;;18.30;15.35;;;15.20;99.90;;;;;;5030101;28;20268;-52
2022/03/28 09:34:07;;;;;;;16.48;14.10;;;15.20;99.90;;;;;;5042777;28;20608;-51
2022/03/28 09:36:44;;;;;;;20.70;15.13;;;15.30;99.90;;;;;;5031479;28;20284;-52
2022/03/28 09:39:17;;;;;;;21.97;14.80;;;15.30;99.90;;;;;;5044143;28;20286;-52
2022/03/28 09:41:46;;;;;;;17.20;14.32;;;15.40;99.90;;;;;;5051794;28;20641;-53
2022/03/28 09:44:15;;;;;;;17.98;14.25;;;15.40;99.90;;;;;;5052425;28;20216;-52
2022/03/28 09:46:45;;;;;;;17.42;13.65;;;15.30;99.90;;;;;;5052756;28;20248;-52
2022/03/28 09:49:24;;;;;;;18.38;14.23;;;15.50;99.90;;;;;;5052468;28;20238;-52
2022/03/28 09:52:03;;;;;;;15.43;13.40;;;15.60;99.90;;;;;;5051459;28;20194;-52
2022/03/28 09:54:44;;;;;;;17.90;13.25;;;15.60;99.90;;;;;;5051701;28;20670;-52
2022/03/28 09:57:13;;;;;;;16.67;13.55;;;15.60;99.90;;;;;;5045267;28;20205;-52
2022/03/28 09:59:42;;;;;;;18.80;14.50;;;15.70;99.90;;;;;;5045756;28;20226;-51
2022/03/28 10:02:19;;;;;;;16.63;13.75;;;15.70;99.90;;;;;;5049099;28;20209;-52
2022/03/28 10:04:51;;;;;;;15.55;13.73;;;15.90;99.90;;;;;;5048675;28;20296;-52
2022/03/28 10:07:20;;;;;;;17.33;14.38;;;15.90;99.90;;;;;;5050184;28;20194;-52
2022/03/28 10:09:50;;;;;;;17.30;13.68;;;16.00;99.90;;;;;;5048636;28;20231;-51
2022/03/28 10:12:20;;;;;;;16.48;13.95;;;16.00;99.90;;;;;;5049455;28;20190;-52
2022/03/28 10:14:50;;;;;;;16.73;13.93;;;16.00;99.90;;;;;;5049688;28;20198;-51
2022/03/28 10:17:19;;;;;;;18.52;14.05;;;16.00;99.90;;;;;;5048972;28;20224;-52
2022/03/28 10:19:49;;;;;;;18.08;14.18;;;16.10;99.90;;;;;;5048876;28;20221;-51
2022/03/28 10:22:26;;;;;;;15.80;13.00;;;16.10;99.90;;;;;;5044091;28;20234;-52
2022/03/28 10:24:58;;;;;;;17.42;14.25;;;16.10;99.90;;;;;;5029426;28;20261;-52
2022/03/28 10:27:27;;;;;;;19.42;14.63;;;16.20;99.90;;;;;;5029568;28;20190;-51
2022/03/28 10:30:09;;;;;;;16.48;14.80;;;16.30;99.90;;;;;;5029125;28;20245;-52
2022/03/28 10:32:38;;;;;;;23.33;13.75;;;16.40;99.90;;;;;;5029221;28;20547;-52
2022/03/28 10:35:08;;;;;;;16.15;13.73;;;16.40;99.90;;;;;;5029222;28;20260;-52
2022/03/28 10:37:38;;;;;;;16.95;13.40;;;16.50;99.90;;;;;;5029646;28;20214;-52
2022/03/28 10:40:28;;;;;;;17.25;14.77;;;16.50;99.90;;;;;;5028878;28;20252;-52
2022/03/28 10:43:06;;;;;;;18.10;13.40;;;16.60;99.90;;;;;;5028309;28;20227;-52
2022/03/28 10:45:47;;;;;;;15.02;13.20;;;16.70;99.90;;;;;;5028264;28;20212;-52
2022/03/28 10:48:15;;;;;;;16.92;14.00;;;16.80;99.90;;;;;;5029141;28;20230;-52
2022/03/28 10:50:51;;;;;;;16.00;13.60;;;17.00;99.90;;;;;;5028799;28;20209;-52
2022/03/28 10:53:29;;;;;;;17.08;13.70;;;17.00;99.90;;;;;;5028382;28;20658;-52
2022/03/28 10:55:59;;;;;;;15.38;12.93;;;17.00;99.90;;;;;;5029030;28;20237;-52
2022/03/28 10:58:29;;;;;;;17.10;13.32;;;17.10;99.90;;;;;;5028786;28;20230;-52
2022/03/28 11:01:19;;;;;;;16.55;13.82;;;17.20;99.90;;;;;;5047590;28;20277;-52
2022/03/28 11:03:49;;;;;;;18.73;14.02;;;17.30;99.90;;;;;;5048240;28;20277;-52
2022/03/28 11:06:20;;;;;;;15.30;13.48;;;17.30;99.90;;;;;;5048649;28;20205;-52
2022/03/28 11:09:00;;;;;;;15.98;13.60;;;17.10;99.90;;;;;;5049744;28;20860;-51
2022/03/28 11:11:32;;;;;;;17.73;13.10;;;17.10;99.90;;;;;;5050619;28;20209;-52
2022/03/28 11:14:05;;;;;;;19.25;13.57;;;16.80;99.90;;;;;;5050363;28;20190;-50
2022/03/28 11:16:42;;;;;;;16.67;13.68;;;16.60;99.90;;;;;;5051138;28;20211;-52
2022/03/28 11:19:27;;;;;;;19.50;13.38;;;16.50;99.90;;;;;;5050331;28;20226;-51
2022/03/28 11:22:09;;;;;;;15.32;12.77;;;16.50;99.90;;;;;;5049537;28;20720;-51
2022/03/28 11:24:49;;;;;;;12.43;10.93;;;16.50;99.90;;;;;;5051134;28;20198;-51
2022/03/28 11:27:19;;;;;;;14.80;11.23;;;16.50;99.90;;;;;;5050428;28;20202;-52
2022/03/28 11:29:48;;;;;;;15.20;11.77;;;16.50;99.90;;;;;;5050901;28;20226;-51
2022/03/28 11:32:18;;;;;;;13.60;11.00;;;16.60;99.90;;;;;;5050113;28;20220;-51
2022/03/28 11:34:55;;;;;;;13.73;10.70;;;16.70;99.90;;;;;;5050678;28;20582;-50
2022/03/28 11:37:26;;;;;;;15.30;10.43;;;16.80;99.90;;;;;;5049777;28;20216;-52
2022/03/28 11:39:57;;;;;;;11.35;9.45;;;17.00;99.90;;;;;;5048337;28;20252;-51
2022/03/28 11:42:26;;;;;;;13.43;9.48;;;17.10;99.90;;;;;;5050369;28;20224;-51
2022/03/28 11:44:55;;;;;;;13.15;10.57;;;17.20;99.90;;;;;;5049946;28;20217;-51
2022/03/28 11:47:24;;;;;;;12.82;10.63;;;17.20;99.90;;;;;;5050888;28;20224;-51
2022/03/28 11:49:54;;;;;;;12.93;9.93;;;17.30;99.90;;;;;;5049813;28;20225;-51
2022/03/28 11:52:26;;;;;;;12.30;9.63;;;17.50;99.90;;;;;;5049904;28;20570;-51
2022/03/28 11:54:55;;;;;;;11.80;9.70;;;17.60;99.90;;;;;;5050942;28;20197;-52
2022/03/28 12:00:17;;;;;;;12.77;9.90;;;17.60;99.90;;;;;;5054576;28;20347;-51
2022/03/28 12:02:52;;;;;;;12.63;9.82;;;17.60;99.90;;;;;;5053874;28;20232;-51
2022/03/28 12:05:29;;;;;;;15.73;10.98;;;17.70;99.90;;;;;;5054650;28;20204;-51
2022/03/28 12:07:59;;;;;;;12.52;9.10;;;17.90;99.90;;;;;;5054329;28;20201;-52
2022/03/28 12:10:29;;;;;;;11.10;9.38;;;17.90;99.90;;;;;;5047736;28;20206;-52
2022/03/28 12:12:59;;;;;;;14.52;10.23;;;17.90;99.90;;;;;;5046493;28;20205;-52
2022/03/28 12:15:30;;;;;;;12.85;10.25;;;17.90;99.90;;;;;;5050825;28;20213;-52
2022/03/28 12:18:00;;;;;;;14.43;10.85;;;17.80;99.90;;;;;;5051546;28;20209;-52
2022/03/28 12:20:30;;;;;;;12.90;10.52;;;17.60;99.90;;;;;;5050703;28;20209;-52
2022/03/28 12:23:01;;;;;;;12.80;10.05;;;17.60;99.90;;;;;;5041893;28;20687;-52
2022/03/28 12:25:32;;;;;;;12.30;10.30;;;17.50;99.90;;;;;;5036800;28;20206;-51
2022/03/28 12:28:03;;;;;;;12.75;9.38;;;17.50;99.90;;;;;;5053215;28;20225;-52
2022/03/28 12:30:35;;;;;;;10.63;8.93;;;17.60;99.90;;;;;;5053322;28;20221;-52
2022/03/28 12:33:14;;;;;;;11.27;8.75;;;17.80;99.90;;;;;;5052480;28;20213;-51
2022/03/28 12:35:45;;;;;;;11.32;8.52;;;17.90;99.90;;;;;;5053021;28;20215;-52
2022/03/28 12:38:18;;;;;;;13.77;8.75;;;18.00;99.90;;;;;;5053507;28;20241;-52
2022/03/28 12:40:50;;;;;;;10.93;8.48;;;18.00;99.90;;;;;;5052873;28;20208;-52
2022/03/28 12:43:19;;;;;;;10.85;9.32;;;18.00;99.90;;;;;;5040015;28;20237;-52
2022/03/28 12:45:47;;;;;;;11.18;8.63;;;18.00;99.90;;;;;;5043549;28;20256;-52
2022/03/28 12:48:15;;;;;;;12.02;8.73;;;18.10;99.90;;;;;;5052733;28;20238;-51
2022/03/28 12:50:57;;;;;;;16.95;13.20;;;18.20;99.90;;;;;;5050842;28;20289;-52
2022/03/28 12:53:29;;;;;;;11.10;8.48;;;18.30;99.90;;;;;;5050047;28;20204;-51